Time;durP1;ratioP1;P1;durP2;ratioP2;P2;SDS_P1;SDS_P2;PMS_P1;PMS_P2;Temp;Humidity;BMP_temperature;BMP_pressure;BME280_temperature;BME280_humidity;BME280_pressure;Samples;Min_cycle;Max_cycle;Signal;HPM_P1;HPM_P2
2022/08/19 00:02:24;;;;;;;;;15.25;14.25;;;;;23.07;53.94;100945.81;5099608;27;45414;-51
2022/08/19 00:04:52;;;;;;;;;18.25;15.25;;;;;23.05;53.65;100939.66;5100016;27;45370;-51
2022/08/19 00:07:18;;;;;;;;;17.20;15.00;;;;;23.00;54.46;100942.50;5098471;27;45458;-52
2022/08/19 00:09:44;;;;;;;;;14.20;14.20;;;;;23.02;54.00;100940.25;5099786;27;45463;-54
2022/08/19 00:12:10;;;;;;;;;15.50;13.75;;;;;22.93;54.12;100939.22;5098733;27;45284;-53
2022/08/19 00:14:35;;;;;;;;;14.25;14.25;;;;;22.94;54.56;100941.69;5099384;27;45945;-54
2022/08/19 00:17:02;;;;;;;;;14.50;13.75;;;;;22.97;54.17;100943.91;5100347;27;45355;-51
2022/08/19 00:19:28;;;;;;;;;14.40;12.20;;;;;22.95;54.28;100946.16;5081493;27;45996;-54
2022/08/19 00:21:55;;;;;;;;;11.50;11.50;;;;;22.91;54.46;100939.50;5079245;28;45541;-54
2022/08/19 00:24:21;;;;;;;;;15.20;14.20;;;;;22.61;54.24;100893.81;5079458;27;45340;-54
2022/08/19 00:26:47;;;;;;;;;13.60;12.40;;;;;22.91;54.19;100942.28;5079180;27;45278;-53
2022/08/19 00:29:14;;;;;;;;;11.75;11.75;;;;;22.82;54.12;100924.44;5077918;28;46708;-54
2022/08/19 00:31:41;;;;;;;;;17.20;14.40;;;;;22.95;54.15;100948.13;5077317;28;45205;-50
2022/08/19 00:34:07;;;;;;;;;13.20;12.40;;;;;22.90;54.06;100946.22;5079244;27;45389;-53
2022/08/19 00:36:32;;;;;;;;;17.00;15.25;;;;;22.65;54.00;100902.44;5079067;27;45378;-53
2022/08/19 00:38:59;;;;;;;;;16.75;13.25;;;;;22.79;54.47;100941.81;5077239;28;46856;-52
2022/08/19 00:41:24;;;;;;;;;11.40;10.20;;;;;22.78;54.49;100948.53;5078836;27;45447;-53
2022/08/19 00:44:19;;;;;;;;;14.00;12.75;;;;;22.70;54.57;100949.97;5078742;27;45411;-53
2022/08/19 00:46:45;;;;;;;;;17.60;15.80;;;;;22.71;54.35;100948.84;5078496;28;45387;-52
2022/08/19 00:49:32;;;;;;;;;11.20;11.20;;;;;22.74;54.58;100948.28;5078716;28;46647;-54
2022/08/19 00:52:31;;;;;;;;;10.00;9.60;;;;;22.69;54.15;100945.50;5078263;27;45237;-51
2022/08/19 00:54:57;;;;;;;;;12.40;12.40;;;;;22.70;54.43;100953.63;5078412;27;45255;-48
2022/08/19 00:57:56;;;;;;;;;12.00;9.00;;;;;22.68;54.47;100947.47;5079173;27;45359;-49
2022/08/19 01:00:22;;;;;;;;;10.20;10.20;;;;;22.61;54.65;100947.78;5094350;27;45871;-51
2022/08/19 01:02:48;;;;;;;;;11.00;11.00;;;;;22.56;54.79;100953.41;5078326;28;45798;-50
2022/08/19 01:05:20;;;;;;;;;13.50;11.00;;;;;22.54;54.78;100952.88;5078363;27;45761;-50
2022/08/19 01:07:47;;;;;;;;;15.00;14.60;;;;;22.51;55.26;100945.03;5076786;28;45369;-51
2022/08/19 01:10:15;;;;;;;;;17.00;16.20;;;;;22.31;54.71;100918.84;5060011;28;45356;-49
2022/08/19 01:12:40;;;;;;;;;20.20;17.40;;;;;22.32;54.63;100914.91;5077159;27;45335;-49
2022/08/19 01:15:07;;;;;;;;;19.75;17.75;;;;;22.31;54.92;100918.00;5076822;28;45471;-50
2022/08/19 01:17:33;;;;;;;;;16.20;15.20;;;;;22.42;55.09;100927.19;5077536;28;45296;-50
2022/08/19 01:19:59;;;;;;;;;16.20;16.20;;;;;22.54;55.06;100944.47;5077325;27;46221;-51
2022/08/19 01:22:29;;;;;;;;;17.00;14.50;;;;;22.24;54.64;100892.34;5053723;27;45478;-49
2022/08/19 01:24:55;;;;;;;;;17.60;16.80;;;;;22.58;54.72;100951.16;5093926;27;45358;-49
2022/08/19 01:27:20;;;;;;;;;11.00;10.50;;;;;22.56;54.99;100949.75;5077910;28;45336;-49
2022/08/19 01:29:46;;;;;;;;;14.75;14.00;;;;;22.42;54.57;100921.59;5077656;27;47556;-50
2022/08/19 01:32:14;;;;;;;;;14.25;12.50;;;;;22.52;55.07;100952.31;5077233;27;45427;-50
2022/08/19 01:34:40;;;;;;;;;16.20;14.00;;;;;22.46;54.96;100950.63;5077840;28;45441;-50
2022/08/19 01:37:07;;;;;;;;;12.75;12.75;;;;;22.47;55.13;100952.31;5059944;28;45414;-55
2022/08/19 01:39:33;;;;;;;;;13.80;13.40;;;;;22.19;54.82;100918.31;5076062;28;45305;-53
2022/08/19 01:42:02;;;;;;;;;13.25;11.50;;;;;22.40;55.08;100957.41;5077528;27;45389;-54
2022/08/19 01:44:28;;;;;;;;;14.80;12.20;;;;;22.25;55.06;100939.53;5059491;28;45262;-51
2022/08/19 01:46:53;;;;;;;;;14.25;13.75;;;;;22.36;55.25;100953.50;5093498;27;45373;-51
2022/08/19 01:49:20;;;;;;;;;14.00;14.00;;;;;22.34;55.01;100957.41;5077227;27;46168;-48
2022/08/19 01:51:46;;;;;;;;;15.00;15.00;;;;;22.38;55.12;100962.41;5077192;27;45259;-50
2022/08/19 01:54:12;;;;;;;;;11.75;11.75;;;;;22.37;55.09;100955.16;5077500;27;45427;-49
2022/08/19 01:56:38;;;;;;;;;11.00;11.00;;;;;22.35;54.97;100958.22;5077494;27;45359;-50
2022/08/19 01:59:06;;;;;;;;;10.50;10.50;;;;;22.22;55.14;100937.34;5077433;27;45718;-49
2022/08/19 02:01:32;;;;;;;;;20.20;18.60;;;;;22.36;55.17;100956.28;5076932;27;45483;-50
2022/08/19 02:04:00;;;;;;;;;15.25;14.25;;;;;22.34;55.30;100953.78;5077606;27;45363;-49
2022/08/19 02:06:26;;;;;;;;;15.00;15.00;;;;;22.33;55.35;100958.53;5075793;28;45410;-49
2022/08/19 02:08:51;;;;;;;;;17.60;17.20;;;;;22.31;55.53;100959.94;5059136;28;46215;-49
2022/08/19 02:11:28;;;;;;;;;13.25;13.25;;;;;22.28;55.63;100957.72;5077045;27;45388;-49
2022/08/19 02:13:54;;;;;;;;;17.00;13.60;;;;;22.25;55.69;100956.31;5077363;27;45193;-53
2022/08/19 02:16:19;;;;;;;;;16.80;14.40;;;;;22.26;55.74;100960.81;5075938;28;45446;-49
2022/08/19 02:18:46;;;;;;;;;13.00;12.00;;;;;22.25;55.47;100958.28;5082506;27;45686;-53
2022/08/19 02:21:12;;;;;;;;;14.60;14.60;;;;;22.23;55.83;100961.38;5097229;27;45382;-51
2022/08/19 02:23:38;;;;;;;;;13.25;13.00;;;;;22.21;55.77;100958.03;5096913;27;45414;-49
2022/08/19 02:26:04;;;;;;;;;11.50;8.75;;;;;22.11;56.21;100950.53;5097841;27;45416;-48
2022/08/19 02:28:29;;;;;;;;;15.00;13.75;;;;;21.97;56.35;100933.50;5095750;27;45773;-49
2022/08/19 02:30:54;;;;;;;;;13.00;12.50;;;;;22.11;56.17;100963.66;5113218;27;45502;-50
2022/08/19 02:33:20;;;;;;;;;14.75;12.50;;;;;22.12;56.16;100966.16;5079340;27;45428;-51
2022/08/19 02:35:46;;;;;;;;;13.50;13.00;;;;;22.12;56.21;100979.28;5097381;27;45421;-51
2022/08/19 02:38:26;;;;;;;;;16.50;14.25;;;;;22.01;56.65;100970.94;5097647;27;45780;-52
2022/08/19 02:40:55;;;;;;;;;11.60;11.60;;;;;21.83;56.77;100958.44;5096990;27;45409;-51
2022/08/19 02:43:20;;;;;;;;;13.40;13.40;;;;;21.88;57.12;100963.16;5097557;27;45406;-50
2022/08/19 02:45:48;;;;;;;;;14.00;14.00;;;;;21.91;57.28;100959.78;5097295;27;45340;-54
2022/08/19 02:48:23;;;;;;;;;12.60;12.60;;;;;21.95;57.33;100969.28;5113137;27;46123;-53
2022/08/19 02:50:54;;;;;;;;;12.60;12.60;;;;;21.94;56.82;100951.69;5096967;27;45351;-52
2022/08/19 02:53:23;;;;;;;;;14.20;12.40;;;;;21.87;57.20;100945.56;5097426;27;45457;-52
2022/08/19 02:55:49;;;;;;;;;11.80;10.40;;;;;21.95;57.16;100958.13;5112914;27;45572;-50
2022/08/19 02:58:15;;;;;;;;;14.25;11.50;;;;;22.02;57.43;100960.59;5097340;27;46674;-50
2022/08/19 03:00:48;;;;;;;;;15.75;14.50;;;;;22.03;57.40;100962.25;5097065;27;45609;-49
2022/08/19 03:03:15;;;;;;;;;12.40;12.40;;;;;22.03;57.23;100957.53;5096399;27;45752;-51
2022/08/19 03:05:40;;;;;;;;;15.00;13.40;;;;;21.88;57.26;100943.63;5113228;27;45219;-51
2022/08/19 03:08:06;;;;;;;;;12.25;11.75;;;;;21.97;57.54;100960.63;5096835;27;46741;-53
2022/08/19 03:10:32;;;;;;;;;13.00;12.00;;;;;21.88;57.48;100949.19;5097090;27;45315;-50
2022/08/19 03:12:58;;;;;;;;;15.20;12.00;;;;;21.90;57.75;100950.59;5096673;27;45865;-52
2022/08/19 03:15:23;;;;;;;;;16.25;14.75;;;;;21.98;58.15;100968.72;5097303;27;45377;-54
2022/08/19 03:17:49;;;;;;;;;13.50;12.00;;;;;21.89;58.40;100948.06;5096385;27;45701;-52
2022/08/19 03:20:14;;;;;;;;;12.75;12.25;;;;;21.80;58.33;100937.50;5078196;27;45446;-51
2022/08/19 03:22:40;;;;;;;;;12.75;12.75;;;;;21.94;58.60;100957.28;5076151;27;45399;-53
2022/08/19 03:25:05;;;;;;;;;10.75;9.50;;;;;21.92;58.10;100955.88;5076295;28;45428;-50
2022/08/19 03:27:31;;;;;;;;;13.75;13.25;;;;;21.82;58.51;100937.19;5092304;27;45876;-53
2022/08/19 03:29:56;;;;;;;;;13.75;12.75;;;;;21.83;58.18;100936.09;5076208;27;45310;-50
2022/08/19 03:32:22;;;;;;;;;12.00;9.75;;;;;21.94;58.40;100959.25;5074215;28;45438;-53
2022/08/19 03:34:47;;;;;;;;;11.75;11.75;;;;;21.90;58.68;100952.53;5074880;28;45368;-49
2022/08/19 03:37:13;;;;;;;;;13.00;11.50;;;;;21.76;58.54;100925.19;5075423;27;45769;-53
2022/08/19 03:39:39;;;;;;;;;13.50;12.50;;;;;21.87;58.56;100953.13;5075857;28;45427;-49
2022/08/19 03:42:05;;;;;;;;;11.50;10.75;;;;;21.90;58.34;100944.16;5075783;27;45306;-53
2022/08/19 03:44:32;;;;;;;;;9.40;9.40;;;;;21.85;58.24;100949.75;5074764;28;45323;-52
2022/08/19 03:46:58;;;;;;;;;10.20;10.20;;;;;21.75;58.23;100937.50;5075682;27;45678;-50
2022/08/19 03:49:24;;;;;;;;;10.00;10.00;;;;;21.87;58.51;100953.94;5074519;28;45414;-52
2022/08/19 03:51:50;;;;;;;;;12.80;12.00;;;;;21.69;58.22;100933.03;5091571;27;45361;-51
2022/08/19 03:54:19;;;;;;;;;14.50;12.50;;;;;21.82;58.36;100950.34;5074930;28;45312;-52
2022/08/19 03:56:45;;;;;;;;;10.40;10.40;;;;;21.86;58.57;100957.00;5091261;27;46832;-49
2022/08/19 03:59:13;;;;;;;;;9.80;9.20;;;;;21.83;58.55;100957.59;5091246;27;45361;-50
2022/08/19 04:01:39;;;;;;;;;14.00;12.40;;;;;21.86;58.64;100955.06;5075837;27;45494;-51
2022/08/19 04:04:04;;;;;;;;;12.00;11.50;;;;;21.68;58.27;100936.94;5075781;27;45497;-50
2022/08/19 04:06:31;;;;;;;;;12.00;11.75;;;;;21.71;58.42;100939.16;5075369;27;45506;-54
2022/08/19 04:08:58;;;;;;;;;12.20;12.20;;;;;21.68;58.42;100936.94;5075424;27;45367;-50
2022/08/19 04:11:28;;;;;;;;;10.20;8.20;;;;;21.64;58.43;100933.00;5075680;27;45294;-53
2022/08/19 04:13:54;;;;;;;;;10.20;10.20;;;;;21.80;58.46;100950.59;5075943;27;45340;-53
2022/08/19 04:16:20;;;;;;;;;10.25;10.25;;;;;21.63;58.38;100925.75;5074000;28;46461;-50
2022/08/19 04:18:47;;;;;;;;;10.80;10.00;;;;;21.76;58.52;100946.69;5079351;27;45335;-51
2022/08/19 04:21:24;;;;;;;;;8.80;8.00;;;;;21.73;58.84;100945.34;5095633;27;45268;-51
2022/08/19 04:23:49;;;;;;;;;10.40;10.20;;;;;21.78;58.29;100944.47;5077728;27;45386;-52
2022/08/19 04:26:20;;;;;;;;;9.75;8.75;;;;;21.86;58.82;100962.59;5095728;27;46493;-49
2022/08/19 04:28:46;;;;;;;;;12.00;11.40;;;;;21.85;58.28;100952.53;5095342;27;45296;-49
2022/08/19 04:31:16;;;;;;;;;7.50;6.00;;;;;21.80;58.06;100953.41;5095925;27;45369;-49
2022/08/19 04:33:41;;;;;;;;;7.60;7.60;;;;;21.82;58.04;100961.50;5095614;27;45595;-50
2022/08/19 04:36:07;;;;;;;;;10.00;10.00;;;;;21.82;57.93;100956.75;5095454;27;45714;-53
2022/08/19 04:38:33;;;;;;;;;9.50;7.50;;;;;21.80;58.27;100956.19;5077164;27;45506;-51
2022/08/19 04:43:44;;;;;;;;;6.80;6.20;;;;;21.80;58.21;100959.84;5097022;27;45406;-49
2022/08/19 04:46:11;;;;;;;;;9.20;7.40;;;;;21.70;58.49;100953.41;5098152;27;47099;-52
2022/08/19 04:48:37;;;;;;;;;8.00;8.00;;;;;21.60;58.78;100949.50;5098976;27;45379;-52
2022/08/19 04:51:06;;;;;;;;;8.40;7.60;;;;;21.57;58.90;100946.44;5099583;27;45330;-49
2022/08/19 04:53:32;;;;;;;;;6.00;6.00;;;;;21.60;58.72;100955.09;5114887;27;45579;-50
2022/08/19 04:55:59;;;;;;;;;8.00;6.00;;;;;21.81;58.50;100977.41;5060487;27;46073;-50
2022/08/19 04:58:25;;;;;;;;;8.00;8.00;;;;;21.74;58.88;100983.31;5097723;27;45394;-50
2022/08/19 05:00:50;;;;;;;;;6.40;6.40;;;;;21.61;59.01;100981.06;5099029;27;45362;-51
2022/08/19 05:03:16;;;;;;;;;5.50;5.50;;;;;21.63;58.96;100984.41;5099366;27;45547;-49
2022/08/19 05:05:42;;;;;;;;;7.75;7.00;;;;;21.52;59.33;100992.78;5098552;27;45362;-51
2022/08/19 05:08:08;;;;;;;;;4.75;4.75;;;;;21.49;59.44;100990.56;5097278;27;45405;-53
2022/08/19 05:10:37;;;;;;;;;9.75;6.75;;;;;21.08;59.21;100920.81;5098747;27;45267;-52
2022/08/19 05:13:03;;;;;;;;;5.80;5.80;;;;;21.57;59.12;100996.69;5098190;27;45877;-51
2022/08/19 05:15:29;;;;;;;;;6.25;6.25;;;;;21.63;58.97;100996.44;5098762;27;45410;-50
2022/08/19 05:23:22;;;;;;;;;10.20;6.40;;;;;21.72;58.86;100996.69;5076988;28;45474;-53
2022/08/19 05:25:50;;;;;;;;;4.75;4.75;;;;;21.57;58.75;100983.59;5077587;28;46230;-51
2022/08/19 05:28:15;;;;;;;;;7.60;4.60;;;;;21.57;58.87;100977.16;5077994;28;45406;-51
2022/08/19 05:30:43;;;;;;;;;8.00;5.25;;;;;21.66;58.82;101006.16;5078073;27;45401;-52
2022/08/19 05:33:09;;;;;;;;;10.60;6.60;;;;;21.62;59.06;101007.88;5077943;27;45337;-50
2022/08/19 05:35:37;;;;;;;;;7.00;7.00;;;;;21.59;58.92;100995.31;5077934;27;45813;-53
2022/08/19 05:38:02;;;;;;;;;5.40;5.40;;;;;21.47;59.11;100972.41;5077613;27;45406;-55
2022/08/19 05:40:28;;;;;;;;;5.00;5.00;;;;;21.67;59.14;101008.69;5077762;28;45389;-53
2022/08/19 05:42:53;;;;;;;;;4.50;4.50;;;;;21.75;59.18;101012.91;5076567;28;45325;-53
2022/08/19 05:45:21;;;;;;;;;7.75;7.75;;;;;21.62;58.94;100986.34;5076268;28;46797;-53
2022/08/19 05:47:46;;;;;;;;;4.80;4.20;;;;;21.84;58.94;101009.53;5093043;27;45340;-54
2022/08/19 05:50:12;;;;;;;;;6.50;5.00;;;;;21.67;59.04;100982.75;5077803;27;45226;-51
2022/08/19 05:52:38;;;;;;;;;6.75;6.75;;;;;21.86;59.08;101001.72;5077817;28;45399;-50
2022/08/19 05:55:05;;;;;;;;;4.75;4.75;;;;;21.85;59.01;101000.88;5076754;27;45403;-50
2022/08/19 05:57:30;;;;;;;;;7.00;5.00;;;;;21.67;59.50;100989.13;5077333;28;45342;-51
2022/08/19 05:59:57;;;;;;;;;5.00;4.00;;;;;21.77;59.65;101007.88;5077492;27;45209;-51
2022/08/19 06:02:22;;;;;;;;;6.80;6.80;;;;;21.77;59.83;101007.06;5093393;27;45406;-51
2022/08/19 06:04:49;;;;;;;;;3.00;3.00;;;;;21.75;60.23;101012.91;5077053;28;45450;-51
2022/08/19 06:07:15;;;;;;;;;2.60;2.60;;;;;21.76;60.20;101014.59;5076942;27;45400;-50
2022/08/19 06:09:40;;;;;;;;;5.25;4.75;;;;;21.76;60.52;101013.72;5077353;27;45449;-50
2022/08/19 06:12:06;;;;;;;;;3.50;3.50;;;;;21.71;60.72;101017.38;5092883;27;45352;-54
2022/08/19 06:14:33;;;;;;;;;2.50;2.50;;;;;21.51;60.81;100976.31;5076921;27;45552;-54
2022/08/19 06:17:01;;;;;;;;;4.60;4.00;;;;;21.65;60.79;101001.72;5075660;28;45387;-51
2022/08/19 06:19:29;;;;;;;;;4.00;3.00;;;;;21.67;61.18;101024.63;5085002;27;45324;-53
2022/08/19 06:21:55;;;;;;;;;4.40;3.00;;;;;21.61;61.22;101020.16;5097828;27;45272;-50
2022/08/19 06:24:25;;;;;;;;;2.25;2.25;;;;;21.55;61.60;101026.88;5096901;27;45446;-49
2022/08/19 06:26:52;;;;;;;;;2.40;2.00;;;;;21.56;61.57;101031.31;5097738;27;45345;-52
2022/08/19 06:29:19;;;;;;;;;1.60;1.60;;;;;21.55;61.41;101040.81;5097284;27;45548;-51
2022/08/19 06:31:49;;;;;;;;;3.80;3.00;;;;;21.62;61.56;101033.00;5097631;27;45333;-53
2022/08/19 06:34:15;;;;;;;;;2.80;2.80;;;;;21.68;61.14;101037.47;5096854;27;46141;-53
2022/08/19 06:36:43;;;;;;;;;3.50;3.25;;;;;21.67;61.59;101035.81;5097543;27;45307;-51
2022/08/19 06:39:15;;;;;;;;;2.60;2.60;;;;;21.47;60.91;101009.56;5095694;27;45400;-53
2022/08/19 06:41:43;;;;;;;;;3.80;2.00;;;;;21.71;61.20;101050.88;5097428;27;45565;-52
2022/08/19 06:44:09;;;;;;;;;2.60;1.80;;;;;21.71;61.15;101050.88;5096977;27;46054;-54
2022/08/19 06:46:35;;;;;;;;;3.00;2.00;;;;;21.74;61.12;101047.56;5096819;27;45384;-53
2022/08/19 06:49:01;;;;;;;;;3.00;3.00;;;;;21.68;61.31;101043.06;5064357;27;45450;-52
2022/08/19 06:51:27;;;;;;;;;2.25;2.25;;;;;21.72;61.28;101048.94;5070977;27;45477;-53
2022/08/19 06:53:53;;;;;;;;;2.00;2.00;;;;;21.77;61.06;101035.81;5075284;27;45488;-50
2022/08/19 06:56:21;;;;;;;;;4.00;2.20;;;;;21.68;60.83;101020.72;5092115;27;45297;-50
2022/08/19 06:58:50;;;;;;;;;3.80;2.80;;;;;21.81;60.90;101038.88;5074830;28;45403;-53
2022/08/19 07:01:15;;;;;;;;;2.60;2.60;;;;;21.83;60.89;101039.44;5076735;27;45487;-49
2022/08/19 07:03:41;;;;;;;;;2.50;2.50;;;;;21.85;60.27;101041.94;5076272;27;45455;-51
2022/08/19 07:06:09;;;;;;;;;2.00;2.00;;;;;21.71;60.53;101019.34;5075120;27;45364;-50
2022/08/19 07:08:36;;;;;;;;;2.40;2.00;;;;;21.88;60.65;101044.19;5092179;27;45411;-52
2022/08/19 07:11:12;;;;;;;;;2.00;2.00;;;;;21.88;60.69;101058.97;5076711;27;45773;-52
2022/08/19 07:13:38;;;;;;;;;1.00;1.00;;;;;21.85;60.66;101059.56;5076163;27;45305;-51
2022/08/19 07:16:05;;;;;;;;;2.50;2.50;;;;;21.75;60.71;101040.84;5074921;28;45529;-52
2022/08/19 07:18:30;;;;;;;;;5.00;2.40;;;;;21.82;60.57;101073.25;5076348;27;45363;-53
2022/08/19 07:21:07;;;;;;;;;2.75;2.75;;;;;21.77;60.80;101060.13;5088750;27;45470;-52
2022/08/19 07:23:32;;;;;;;;;5.80;3.80;;;;;21.75;61.15;101067.94;5075601;27;45893;-50
2022/08/19 07:25:58;;;;;;;;;2.00;2.00;;;;;21.78;61.33;101071.00;5076324;27;45448;-51
2022/08/19 07:28:25;;;;;;;;;3.00;3.00;;;;;21.67;61.23;101041.38;5076101;27;45296;-51
2022/08/19 07:30:51;;;;;;;;;2.00;2.00;;;;;21.85;61.35;101055.91;5076444;27;45218;-49
2022/08/19 07:33:17;;;;;;;;;2.60;1.40;;;;;21.83;61.07;101049.78;5091867;27;46543;-50
2022/08/19 07:35:43;;;;;;;;;3.20;1.40;;;;;22.00;60.99;101061.50;5075403;27;45242;-50
2022/08/19 07:38:09;;;;;;;;;2.50;2.50;;;;;21.83;61.22;101060.94;5092071;27;45369;-51
2022/08/19 07:40:34;;;;;;;;;2.50;2.50;;;;;21.83;61.19;101047.84;5057558;28;45653;-54
2022/08/19 07:43:00;;;;;;;;;3.25;2.00;;;;;21.86;61.05;101050.06;5074541;27;45487;-51
2022/08/19 07:45:27;;;;;;;;;2.00;2.00;;;;;21.92;61.11;101056.47;5075271;27;45419;-51
2022/08/19 07:47:52;;;;;;;;;3.00;2.00;;;;;21.90;61.16;101053.13;5075839;27;45301;-50
2022/08/19 07:50:19;;;;;;;;;2.00;2.00;;;;;21.92;61.37;101064.84;5076122;27;45267;-50
2022/08/19 07:52:44;;;;;;;;;1.40;1.40;;;;;21.83;61.27;101042.25;5075163;27;45673;-51
2022/08/19 07:55:10;;;;;;;;;4.00;2.00;;;;;21.91;61.39;101063.16;5075715;28;45427;-51
2022/08/19 07:57:35;;;;;;;;;1.50;1.50;;;;;21.99;61.19;101057.00;5075898;27;45292;-53
2022/08/19 08:00:01;;;;;;;;;1.00;1.00;;;;;22.02;61.14;101055.59;5075788;28;45546;-51
2022/08/19 08:02:26;;;;;;;;;3.00;3.00;;;;;22.11;60.74;101056.72;5075588;27;45981;-54
2022/08/19 08:10:19;;;;;;;;;3.00;2.00;;;;;22.06;60.65;101035.22;5075738;28;45350;-52
2022/08/19 08:12:45;;;;;;;;;3.00;1.75;;;;;22.20;60.50;101057.81;5075091;28;46627;-50
2022/08/19 08:15:16;;;;;;;;;2.75;2.75;;;;;22.14;60.38;101041.34;5075378;28;45804;-52
2022/08/19 08:17:41;;;;;;;;;0.40;0.40;;;;;22.26;59.99;101058.66;5076862;27;45371;-51
2022/08/19 08:20:07;;;;;;;;;2.00;2.00;;;;;22.25;60.29;101065.34;5078995;27;45581;-51
2022/08/19 08:25:19;;;;;;;;;3.80;2.80;;;;;22.29;60.19;101074.00;5078811;28;45478;-49
2022/08/19 08:27:45;;;;;;;;;1.00;1.00;;;;;22.18;60.09;101065.66;5094334;27;45414;-49
2022/08/19 08:30:19;;;;;;;;;2.00;2.00;;;;;22.16;60.53;101081.88;5078713;27;45313;-52
2022/08/19 08:32:45;;;;;;;;;5.00;2.00;;;;;22.11;61.09;101075.44;5078569;28;45824;-54
2022/08/19 08:35:13;;;;;;;;;1.75;1.75;;;;;22.20;60.61;101080.16;5078076;27;45382;-49
2022/08/19 08:37:39;;;;;;;;;2.20;1.40;;;;;22.28;60.32;101089.94;5077959;28;45404;-52
2022/08/19 08:40:09;;;;;;;;;2.00;2.00;;;;;22.32;60.40;101077.06;5078479;27;45398;-53
2022/08/19 08:42:36;;;;;;;;;1.20;1.20;;;;;22.32;60.47;101081.81;5042350;27;46802;-52
2022/08/19 08:45:06;;;;;;;;;2.00;2.00;;;;;22.21;60.34;101053.06;5083380;27;45578;-54
2022/08/19 08:47:36;;;;;;;;;3.00;3.00;;;;;22.30;60.23;101078.50;5060541;28;45214;-54
2022/08/19 08:50:14;;;;;;;;;3.40;3.40;;;;;22.25;60.66;101087.69;5078351;27;45437;-56
2022/08/19 08:52:43;;;;;;;;;1.60;1.60;;;;;22.34;60.55;101079.56;5078222;27;45574;-51
2022/08/19 08:55:11;;;;;;;;;2.40;2.40;;;;;22.38;60.61;101075.09;5060033;28;45409;-51
2022/08/19 08:57:41;;;;;;;;;3.00;3.00;;;;;22.52;60.16;101085.72;5059573;28;45290;-56
2022/08/19 09:00:10;;;;;;;;;4.80;1.80;;;;;22.39;59.46;101067.53;5077960;28;45485;-52
2022/08/19 09:02:35;;;;;;;;;2.80;2.00;;;;;22.36;60.10;101077.31;5077317;27;45318;-56
2022/08/19 09:05:01;;;;;;;;;2.00;2.00;;;;;22.31;59.95;101055.81;5093636;27;45370;-56
2022/08/19 09:07:48;;;;;;;;;2.00;2.00;;;;;22.53;60.01;101077.06;5076907;28;45231;-50
2022/08/19 09:10:28;;;;;;;;;2.40;2.40;;;;;22.51;59.54;101050.47;5077187;27;45355;-54
2022/08/19 09:13:03;;;;;;;;;2.80;2.80;;;;;22.76;59.52;101080.31;5077122;28;46850;-55
2022/08/19 09:15:32;;;;;;;;;3.20;3.20;;;;;22.79;58.88;101068.53;5076702;28;45408;-50
2022/08/19 09:18:01;;;;;;;;;3.00;3.00;;;;;22.79;59.02;101079.72;5060527;28;46171;-52
2022/08/19 09:20:27;;;;;;;;;4.60;3.00;;;;;22.75;58.56;101075.84;5082707;27;45360;-52
2022/08/19 09:22:53;;;;;;;;;3.00;3.00;;;;;22.72;58.87;101073.59;5077518;27;45567;-55
2022/08/19 09:25:22;;;;;;;;;5.00;3.75;;;;;22.78;58.93;101072.44;5077560;27;45420;-53
2022/08/19 09:27:48;;;;;;;;;3.40;2.40;;;;;22.91;59.08;101081.34;5078574;27;45369;-50
2022/08/19 09:30:17;;;;;;;;;1.00;1.00;;;;;22.98;58.57;101077.13;5076421;27;45660;-53
2022/08/19 09:32:43;;;;;;;;;1.60;1.60;;;;;22.86;58.43;101057.03;5079288;27;45548;-55
2022/08/19 09:35:09;;;;;;;;;3.50;2.50;;;;;22.92;58.17;101052.25;5076814;27;45334;-49
2022/08/19 09:37:34;;;;;;;;;1.60;1.60;;;;;22.98;58.08;101048.28;5085797;27;45674;-51
2022/08/19 09:40:00;;;;;;;;;2.00;2.00;;;;;23.24;57.75;101073.31;5096176;27;45599;-53
2022/08/19 09:42:26;;;;;;;;;3.25;3.25;;;;;23.35;57.66;101069.38;5063968;27;45476;-52
2022/08/19 09:44:51;;;;;;;;;4.50;3.00;;;;;23.49;57.57;101063.09;5056239;27;46706;-55
2022/08/19 09:47:17;;;;;;;;;3.00;3.00;;;;;23.46;57.37;101053.31;5098561;27;45648;-55
2022/08/19 09:49:42;;;;;;;;;3.00;3.00;;;;;23.52;57.11;101065.31;5104114;27;45540;-57
2022/08/19 09:52:09;;;;;;;;;2.25;2.25;;;;;23.52;57.27;101057.75;5076588;27;45451;-54
2022/08/19 09:54:34;;;;;;;;;3.00;3.00;;;;;23.55;56.50;101070.34;5091609;27;45692;-53
2022/08/19 09:57:00;;;;;;;;;1.25;1.25;;;;;23.54;57.11;101065.88;5076062;27;45369;-51
2022/08/19 09:59:26;;;;;;;;;3.00;3.00;;;;;23.53;57.49;101081.00;5075642;28;45594;-56
2022/08/19 10:01:52;;;;;;;;;2.50;2.00;;;;;23.51;57.22;101072.88;5074701;28;45884;-51
2022/08/19 10:04:17;;;;;;;;;3.00;3.00;;;;;23.56;57.19;101069.22;5076678;27;45324;-52
2022/08/19 10:06:43;;;;;;;;;3.00;1.75;;;;;23.41;57.01;101037.41;5076104;27;45434;-53
2022/08/19 10:09:10;;;;;;;;;5.00;3.00;;;;;23.51;57.00;101049.63;5075091;27;45340;-54
2022/08/19 10:11:37;;;;;;;;;2.00;2.00;;;;;23.63;56.61;101060.47;5075019;28;46486;-55
2022/08/19 10:14:05;;;;;;;;;3.80;2.60;;;;;23.71;56.97;101067.41;5075800;27;45851;-56
2022/08/19 10:16:30;;;;;;;;;2.60;2.60;;;;;23.47;56.73;101032.56;5074690;28;45434;-51
2022/08/19 10:18:56;;;;;;;;;3.75;1.00;;;;;23.62;57.01;101065.22;5076815;27;45363;-53
2022/08/19 10:21:26;;;;;;;;;2.25;2.25;;;;;23.40;56.97;101018.94;5089040;27;45407;-53
2022/08/19 10:23:54;;;;;;;;;2.60;2.60;;;;;23.41;56.71;101030.94;5077579;27;46041;-53
2022/08/19 10:26:22;;;;;;;;;2.40;2.40;;;;;23.67;56.72;101065.19;5096268;27;45736;-54
2022/08/19 10:28:47;;;;;;;;;1.00;1.00;;;;;23.65;56.48;101055.41;5097608;27;45364;-55
2022/08/19 10:31:19;;;;;;;;;2.00;2.00;;;;;23.79;56.50;101061.16;5095754;27;48579;-52
2022/08/19 10:33:45;;;;;;;;;2.00;2.00;;;;;23.91;56.38;101066.38;5090171;27;45396;-51
2022/08/19 10:36:17;;;;;;;;;2.00;2.00;;;;;24.04;56.08;101056.44;5058464;28;45901;-51
2022/08/19 10:38:44;;;;;;;;;4.40;2.00;;;;;24.28;55.38;101056.50;5075560;28;45533;-52
2022/08/19 10:41:14;;;;;;;;;3.40;1.20;;;;;24.46;55.02;101066.13;5074215;28;46561;-52
2022/08/19 10:43:40;;;;;;;;;3.20;2.00;;;;;24.58;54.49;101056.41;5070556;27;45361;-54
2022/08/19 10:46:07;;;;;;;;;2.00;1.00;;;;;24.71;54.26;101060.47;5075460;27;45765;-54
2022/08/19 10:48:34;;;;;;;;;2.00;1.60;;;;;24.69;53.75;101049.56;5077035;27;45319;-52
2022/08/19 10:53:43;;;;;;;;;1.20;1.20;;;;;24.64;53.67;101053.25;5074890;28;45346;-54
2022/08/19 10:58:53;;;;;;;;;2.00;2.00;;;;;24.22;54.01;100990.38;5075369;27;46120;-51
2022/08/19 11:01:20;;;;;;;;;2.00;2.00;;;;;24.44;54.17;101029.09;5076298;27;47766;-52
2022/08/19 11:03:45;;;;;;;;;2.00;2.00;;;;;24.67;54.57;101040.59;5046401;27;45464;-55
2022/08/19 11:06:11;;;;;;;;;2.25;2.25;;;;;24.77;54.45;101050.88;5075644;28;45405;-53
2022/08/19 11:08:37;;;;;;;;;1.00;1.00;;;;;24.63;54.39;101022.69;5075272;28;45513;-55
2022/08/19 11:11:03;;;;;;;;;2.20;1.80;;;;;24.75;54.15;101036.28;5074753;27;46941;-57
2022/08/19 11:13:33;;;;;;;;;2.00;2.00;;;;;24.83;53.75;101040.41;5074891;28;45254;-59
2022/08/19 11:16:10;;;;;;;;;2.60;2.60;;;;;24.95;53.69;101040.81;5074880;28;45455;-54
2022/08/19 11:18:37;;;;;;;;;3.80;2.20;;;;;24.86;53.77;101012.59;5076468;27;45430;-57
2022/08/19 11:21:10;;;;;;;;;1.40;1.40;;;;;25.11;53.29;101016.16;5086121;27;46018;-53
2022/08/19 11:23:36;;;;;;;;;2.60;2.60;;;;;25.39;52.96;101029.50;5093570;27;45432;-53
2022/08/19 11:26:01;;;;;;;;;1.00;1.00;;;;;25.65;52.79;101029.06;5096525;27;45343;-61
2022/08/19 11:28:27;;;;;;;;;3.50;2.00;;;;;25.75;52.58;101028.03;5096955;27;45664;-58
2022/08/19 11:30:52;;;;;;;;;1.75;1.75;;;;;25.64;52.41;101016.16;5095417;27;45535;-57
2022/08/19 11:33:18;;;;;;;;;3.00;2.00;;;;;25.44;52.46;101015.34;5096336;27;45304;-59
2022/08/19 11:35:44;;;;;;;;;1.00;1.00;;;;;25.32;52.76;101015.81;5095480;27;45257;-55
2022/08/19 11:38:10;;;;;;;;;2.00;2.00;;;;;25.11;53.70;101018.13;5096737;27;45393;-56
2022/08/19 11:40:36;;;;;;;;;2.00;2.00;;;;;24.96;53.80;101019.19;5112038;27;45441;-52
2022/08/19 11:43:02;;;;;;;;;2.00;2.00;;;;;24.86;54.24;101025.81;5095126;27;45352;-52